Capinopolis, Brazil
Current Conditions -  °F | °C
As of 5:00 AM on Monday 20 Oct 2014 (Local Time) from SBUL Reporting Station
Few Clouds Few Clouds  
Wind Chill: 68°   Ceiling: Unl
Heat Index: 68°   Visibility: 6mi
Dew Point: 61°   Wind: 10mph
Humidity: 78%   Direction: 240°WSW
Pressure: 30.03"   Gusts: NA
Location:  18.68°S, 49.57°W
Report Text: SBUL 200800Z 24009KT 9999 FEW045 FEW050TCU 20/16 Q1017 RETS
Loading
Personal Weather Stations






























Interactive Weather Map
Tropical Storm Tracking
New forecast layout! Learn more

10-Day Weather Forecast

Advertisements
Track Severe Weather on mobile